Time;durP1;ratioP1;P1;durP2;ratioP2;P2;SDS_P1;SDS_P2;PMS_P1;PMS_P2;Temp;Humidity;BMP_temperature;BMP_pressure;BME280_temperature;BME280_humidity;BME280_pressure;Samples;Min_cycle;Max_cycle;Signal;HPM_P1;HPM_P2
2023/10/14 00:02:45;;;;;;;16.20;6.97;;;14.20;99.90;;;12.79;100.00;100063.88;10188292;28;98892;-86
2023/10/14 00:07:25;;;;;;;12.23;5.87;;;14.10;99.90;;;12.69;100.00;100050.81;10205482;28;96753;-86
2023/10/14 00:12:29;;;;;;;17.47;5.70;;;14.00;99.90;;;12.65;100.00;100046.03;10198607;28;97105;-86
2023/10/14 00:17:37;;;;;;;12.03;5.70;;;14.00;99.90;;;12.62;100.00;100041.91;10192222;28;96699;-86
2023/10/14 00:22:41;;;;;;;15.23;6.83;;;13.90;99.90;;;12.62;100.00;100039.25;10214728;28;96706;-87
2023/10/14 00:27:44;;;;;;;11.87;6.13;;;14.00;99.90;;;12.58;100.00;100037.97;10192738;28;98491;-86
2023/10/14 00:32:49;;;;;;;14.37;6.07;;;13.90;99.90;;;12.55;100.00;100030.34;10213874;28;96692;-86
2023/10/14 00:37:53;;;;;;;12.43;6.57;;;13.90;99.90;;;12.51;100.00;100029.88;10213090;28;96555;-86
2023/10/14 00:42:57;;;;;;;15.07;6.87;;;13.90;99.90;;;12.53;100.00;100035.88;10228903;28;96533;-86
2023/10/14 00:48:01;;;;;;;14.07;6.37;;;13.80;99.90;;;12.48;100.00;100024.94;10214349;28;96578;-86
2023/10/14 00:53:05;;;;;;;14.47;6.87;;;13.80;99.90;;;12.45;100.00;100019.94;10229346;28;96527;-86
2023/10/14 00:58:12;;;;;;;11.63;5.70;;;13.80;99.90;;;12.46;100.00;100010.94;10201183;28;97370;-85
2023/10/14 01:03:17;;;;;;;14.63;6.80;;;13.80;99.90;;;12.44;100.00;99996.97;10208574;28;97883;-86
2023/10/14 01:08:24;;;;;;;12.23;6.17;;;13.80;99.90;;;12.40;100.00;99986.88;10196585;28;96669;-86
2023/10/14 01:13:28;;;;;;;14.47;7.00;;;13.70;99.90;;;12.34;100.00;99972.44;10209873;28;96655;-86
2023/10/14 01:18:34;;;;;;;14.43;6.33;;;13.70;99.90;;;12.31;100.00;99975.50;10201906;28;96578;-86
2023/10/14 01:23:39;;;;;;;14.77;7.17;;;13.60;99.90;;;12.26;100.00;99968.06;10217727;28;96620;-86
2023/10/14 01:28:52;;;;;;;17.30;6.80;;;13.60;99.90;;;12.24;100.00;99959.44;10218454;28;96936;-86
2023/10/14 01:33:57;;;;;;;13.07;7.13;;;13.60;99.90;;;12.23;100.00;99954.25;10217305;28;98972;-87
2023/10/14 01:39:04;;;;;;;15.13;6.50;;;13.50;99.90;;;12.19;100.00;99960.97;10207259;28;96514;-86
2023/10/14 01:44:09;;;;;;;17.10;6.50;;;13.60;99.90;;;12.18;100.00;99959.34;10196108;28;97197;-87
2023/10/14 01:49:19;;;;;;;13.33;6.60;;;13.50;99.90;;;12.13;100.00;99940.41;10204577;28;96511;-86
2023/10/14 01:54:23;;;;;;;15.53;6.83;;;13.50;99.90;;;12.10;100.00;99944.25;10197059;28;98276;-86
2023/10/14 01:59:27;;;;;;;15.57;7.83;;;13.40;99.90;;;12.09;100.00;99933.78;10203829;28;98123;-86
2023/10/14 02:04:31;;;;;;;13.43;6.57;;;13.40;99.90;;;12.05;100.00;99914.69;10186510;28;97259;-86
2023/10/14 02:09:36;;;;;;;15.30;6.63;;;13.40;99.90;;;11.99;100.00;99905.59;10160781;28;98695;-86
2023/10/14 02:14:56;;;;;;;16.53;8.30;;;13.30;99.90;;;11.97;100.00;99902.28;10198750;28;97833;-86
2023/10/14 02:20:19;;;;;;;20.07;8.00;;;13.30;99.90;;;11.95;100.00;99900.84;10222225;28;96713;-86
2023/10/14 02:25:27;;;;;;;15.43;7.00;;;13.30;99.90;;;11.95;100.00;99903.50;10214620;28;97543;-86
2023/10/14 02:30:32;;;;;;;18.87;8.13;;;13.30;99.90;;;11.95;100.00;99912.31;10173575;28;96753;-86
2023/10/14 02:35:36;;;;;;;15.67;7.23;;;13.30;99.90;;;11.97;100.00;99904.94;10172231;28;96530;-86
2023/10/14 02:40:40;;;;;;;13.87;8.23;;;13.30;99.90;;;12.00;100.00;99896.59;10214023;28;97032;-86
2023/10/14 02:45:45;;;;;;;16.20;7.30;;;13.30;99.90;;;12.03;100.00;99898.06;10198838;28;96512;-86
2023/10/14 02:50:50;;;;;;;17.77;8.40;;;13.40;99.90;;;12.00;100.00;99887.78;10188445;28;96600;-86
2023/10/14 02:56:04;;;;;;;15.10;7.80;;;13.30;99.90;;;11.96;100.00;99879.34;10228275;28;97889;-86
2023/10/14 03:01:12;;;;;;;20.53;8.93;;;13.30;99.90;;;11.95;100.00;99891.00;10187790;28;96848;-86
2023/10/14 03:06:18;;;;;;;19.70;7.97;;;13.30;99.90;;;11.93;100.00;99894.84;10225120;28;96678;-86
2023/10/14 03:11:31;;;;;;;17.03;7.27;;;13.30;99.90;;;11.84;100.00;99893.31;10197501;28;96601;-86
2023/10/14 03:16:35;;;;;;;19.27;7.80;;;13.20;99.90;;;11.80;100.00;99882.16;10199529;28;96604;-86
2023/10/14 03:21:53;;;;;;;16.23;7.77;;;13.20;99.90;;;11.76;100.00;99886.19;10208025;28;97373;-86
2023/10/14 03:27:02;;;;;;;18.50;7.43;;;13.10;99.90;;;11.71;100.00;99880.59;10184448;28;97357;-86
2023/10/14 03:32:09;;;;;;;18.57;7.73;;;13.10;99.90;;;11.65;100.00;99876.84;10184739;28;96705;-87
2023/10/14 03:37:25;;;;;;;16.33;8.17;;;13.00;99.90;;;11.59;100.00;99879.41;10189097;28;96754;-86
2023/10/14 03:42:32;;;;;;;17.77;9.10;;;13.00;99.90;;;11.56;100.00;99869.94;10206861;28;96597;-86
2023/10/14 03:47:36;;;;;;;16.27;8.40;;;12.90;99.90;;;11.51;100.00;99861.66;10198559;28;97065;-86
2023/10/14 03:52:42;;;;;;;19.30;9.00;;;12.90;99.90;;;11.49;100.00;99859.19;10189823;28;96584;-86
2023/10/14 03:57:45;;;;;;;22.73;8.50;;;12.90;99.90;;;11.48;100.00;99865.53;10189508;28;96594;-86
2023/10/14 04:02:49;;;;;;;22.30;9.57;;;12.90;99.90;;;11.47;100.00;99860.38;10183868;28;97207;-86
2023/10/14 04:08:29;;;;;;;18.37;8.67;;;12.80;99.90;;;11.45;100.00;99857.06;10184240;28;96744;-86
2023/10/14 04:13:34;;;;;;;24.50;9.50;;;12.80;99.90;;;11.43;100.00;99843.13;10176636;28;96835;-86
2023/10/14 04:18:43;;;;;;;15.57;8.20;;;12.80;99.90;;;11.39;100.00;99847.16;10221215;28;96948;-86
2023/10/14 04:34:44;;;;;;;19.83;9.97;;;12.70;99.90;;;11.26;100.00;99858.41;10190351;28;96845;-86
2023/10/14 04:39:58;;;;;;;22.57;9.70;;;12.60;99.90;;;11.23;100.00;99848.97;10221426;28;96687;-86
2023/10/14 04:45:04;;;;;;;23.37;9.30;;;12.60;99.90;;;11.22;100.00;99843.84;10236691;28;96595;-86
2023/10/14 04:50:14;;;;;;;22.03;9.53;;;12.60;99.90;;;11.25;100.00;99846.94;10190963;28;96701;-86
2023/10/14 04:55:25;;;;;;;17.92;9.18;;;12.60;99.90;;;11.25;100.00;99840.81;10206404;28;96562;-85
2023/10/14 05:00:41;;;;;;;23.10;10.63;;;12.70;99.90;;;11.25;100.00;99830.16;10188339;28;97022;-86
2023/10/14 05:05:55;;;;;;;24.90;10.77;;;12.70;99.90;;;11.19;100.00;99830.88;10203223;28;96592;-86
2023/10/14 05:11:00;;;;;;;19.07;9.37;;;12.60;99.90;;;11.15;100.00;99829.59;10224951;28;96643;-86
2023/10/14 05:16:21;;;;;;;20.27;9.53;;;12.60;99.90;;;11.09;100.00;99831.13;10196538;28;97877;-86
2023/10/14 05:21:36;;;;;;;25.63;11.85;;;12.50;99.90;;;11.06;100.00;99830.69;10188791;28;96566;-86
2023/10/14 05:26:47;;;;;;;21.53;9.87;;;12.50;99.90;;;11.07;100.00;99842.97;10225160;28;96600;-86
2023/10/14 05:31:52;;;;;;;;;;;12.50;99.90;;;11.06;100.00;99836.00;10203173;28;97020;-86
2023/10/14 05:36:56;;;;;;;20.07;9.43;;;12.50;99.90;;;11.02;100.00;99830.22;10195883;28;96548;-86
2023/10/14 05:42:04;;;;;;;20.73;9.90;;;12.50;99.90;;;11.06;100.00;99836.00;10225329;28;96825;-85
2023/10/14 05:47:07;;;;;;;25.90;8.63;;;12.50;99.90;;;11.17;100.00;99832.91;10217848;28;97389;-86
2023/10/14 05:52:12;;;;;;;23.80;10.30;;;12.60;99.90;;;11.31;100.00;99826.78;10208823;28;96675;-86
2023/10/14 05:57:20;;;;;;;26.23;10.27;;;12.70;99.90;;;11.41;100.00;99830.00;10197073;28;96499;-84
2023/10/14 06:02:25;;;;;;;20.13;10.13;;;12.80;99.90;;;11.56;100.00;99831.84;10192734;28;97250;-84
2023/10/14 06:07:33;;;;;;;27.40;11.67;;;12.90;99.90;;;11.74;100.00;99832.31;10205619;28;96625;-84
2023/10/14 06:12:37;;;;;;;23.73;10.17;;;13.10;99.90;;;11.94;100.00;99836.09;10219838;28;97630;-85
2023/10/14 06:17:44;;;;;;;20.13;9.87;;;13.30;99.90;;;12.12;100.00;99826.91;10202138;28;98041;-85
2023/10/14 06:22:48;;;;;;;25.40;11.73;;;13.50;99.90;;;12.36;100.00;99833.72;10224687;28;96765;-85
2023/10/14 06:27:53;;;;;;;21.77;10.23;;;13.70;99.90;;;12.52;100.00;99830.81;10187836;28;98769;-84
2023/10/14 06:33:06;;;;;;;20.00;10.13;;;13.90;99.90;;;12.68;100.00;99838.56;10195726;28;96672;-85
2023/10/14 06:38:17;;;;;;;19.80;8.70;;;14.10;99.90;;;12.83;100.00;99827.81;10225244;28;96808;-84
2023/10/14 06:43:22;;;;;;;17.30;8.57;;;14.20;99.90;;;13.01;100.00;99832.69;10189094;28;96801;-85
2023/10/14 06:48:33;;;;;;;18.00;9.30;;;14.40;99.90;;;13.17;100.00;99834.28;10204642;28;97465;-84
2023/10/14 06:53:39;;;;;;;18.73;8.83;;;14.60;99.90;;;13.27;100.00;99824.94;10219633;28;97060;-85
2023/10/14 06:58:44;;;;;;;16.95;8.73;;;14.70;99.90;;;13.47;100.00;99817.06;10164829;28;98870;-85
2023/10/14 07:03:49;;;;;;;16.98;7.53;;;14.90;99.90;;;13.62;100.00;99822.31;10204880;28;97014;-85
2023/10/14 07:08:53;;;;;;;15.00;7.68;;;15.10;99.90;;;13.82;100.00;99819.72;10200893;28;96741;-86
2023/10/14 07:13:57;;;;;;;16.05;8.55;;;15.20;99.90;;;14.03;100.00;99805.44;10207683;28;96824;-84
2023/10/14 07:19:01;;;;;;;20.92;8.50;;;15.40;99.90;;;14.24;100.00;99807.16;10166402;28;98415;-84
2023/10/14 07:24:06;;;;;;;19.30;8.77;;;15.60;99.90;;;14.48;100.00;99803.97;10195608;28;96603;-84
2023/10/14 07:29:10;;;;;;;15.48;8.18;;;15.90;99.90;;;15.06;100.00;99790.84;10202759;28;96696;-84
2023/10/14 07:34:16;;;;;;;15.77;8.05;;;16.30;99.90;;;15.74;100.00;99794.03;10211155;28;98632;-84
2023/10/14 07:39:28;;;;;;;12.95;7.30;;;16.70;99.90;;;16.40;100.00;99786.72;10208160;28;96969;-84
2023/10/14 07:44:33;;;;;;;14.82;8.02;;;17.10;99.90;;;16.62;100.00;99790.69;10198386;28;97490;-84
2023/10/14 07:49:38;;;;;;;13.82;8.23;;;17.40;99.90;;;16.87;100.00;99780.00;10201816;28;97809;-84
2023/10/14 07:54:42;;;;;;;18.30;8.80;;;17.70;99.90;;;16.98;100.00;99762.38;10208513;28;96666;-84
2023/10/14 07:59:50;;;;;;;14.90;8.55;;;17.90;99.90;;;16.95;99.13;99760.94;10193662;28;96826;-84
2023/10/14 08:04:54;;;;;;;17.42;8.50;;;18.00;99.90;;;16.96;96.79;99767.13;10199834;28;97711;-85
2023/10/14 08:10:16;;;;;;;18.63;8.25;;;18.20;99.90;;;16.93;95.23;99781.00;10234295;28;96676;-85
2023/10/14 08:15:20;;;;;;;22.50;8.60;;;18.20;99.90;;;16.98;95.72;99781.16;10213485;28;96556;-84
2023/10/14 08:20:27;;;;;;;16.42;8.52;;;18.30;99.90;;;17.03;96.34;99776.78;10208547;28;96665;-84
2023/10/14 08:25:31;;;;;;;15.90;8.60;;;18.40;99.90;;;17.25;94.72;99769.13;10191424;28;96586;-84
2023/10/14 08:30:45;;;;;;;19.20;9.23;;;18.60;99.90;;;17.44;95.86;99755.72;10182247;28;96853;-85
2023/10/14 08:35:51;;;;;;;13.27;8.48;;;18.80;99.90;;;17.71;94.02;99753.56;10219430;28;96632;-84
2023/10/14 08:40:59;;;;;;;18.20;8.77;;;19.00;99.90;;;17.91;91.56;99749.59;10197494;28;96531;-85
2023/10/14 08:46:05;;;;;;;12.73;8.48;;;19.20;99.90;;;18.08;90.73;99741.72;10226364;28;96819;-84
2023/10/14 08:51:11;;;;;;;14.85;7.97;;;19.40;99.90;;;18.23;89.74;99749.38;10196926;28;96580;-85
2023/10/14 08:56:15;;;;;;;15.98;8.57;;;19.50;99.90;;;18.44;89.12;99732.72;10214244;28;96488;-84
2023/10/14 09:01:22;;;;;;;17.38;8.55;;;19.80;99.90;;;18.68;88.95;99722.84;10209309;28;96615;-85
2023/10/14 09:06:26;;;;;;;17.38;8.73;;;20.00;99.90;;;18.95;86.16;99725.06;10190534;28;96805;-84
2023/10/14 09:11:33;;;;;;;18.08;9.45;;;20.30;99.90;;;19.07;84.01;99723.25;10179744;28;96628;-85
2023/10/14 09:16:39;;;;;;;12.65;7.70;;;20.40;99.90;;;19.25;83.93;99724.94;10181595;28;96492;-85
2023/10/14 09:21:47;;;;;;;13.52;7.28;;;20.60;99.90;;;19.43;82.33;99708.66;10212340;28;97269;-85
2023/10/14 09:26:52;;;;;;;12.95;7.85;;;20.80;99.90;;;19.67;80.95;99708.59;10230339;28;96512;-85
2023/10/14 09:31:59;;;;;;;15.75;8.13;;;21.10;99.90;;;19.81;79.15;99707.28;10224890;28;97336;-85
2023/10/14 09:37:10;;;;;;;13.95;8.07;;;21.30;99.90;;;20.02;78.94;99711.19;10172573;28;96437;-85
2023/10/14 09:42:18;;;;;;;15.75;9.30;;;21.40;99.80;;;20.16;77.49;99703.63;10190173;28;96464;-84
2023/10/14 09:47:25;;;;;;;16.90;8.52;;;21.60;99.40;;;20.23;76.94;99704.28;10207080;28;96373;-85
2023/10/14 09:52:30;;;;;;;19.33;8.70;;;21.60;98.90;;;20.29;75.26;99687.13;10212458;28;96427;-84
2023/10/14 09:57:34;;;;;;;13.57;8.50;;;21.70;98.40;;;20.36;74.26;99682.38;10224646;28;96980;-85
2023/10/14 10:02:44;;;;;;;12.68;7.70;;;21.80;98.10;;;20.54;74.36;99671.38;10225478;28;96511;-85
2023/10/14 10:08:04;;;;;;;;;;;22.00;97.80;;;20.78;74.23;99668.50;10228202;28;96661;-85
2023/10/14 10:13:08;;;;;;;15.18;8.75;;;22.20;97.70;;;20.98;73.02;99659.88;10213297;28;96471;-84
2023/10/14 10:18:16;;;;;;;12.63;7.45;;;22.40;96.90;;;21.21;71.58;99648.84;10223354;28;96672;-85
2023/10/14 10:23:26;;;;;;;16.40;7.55;;;22.70;96.70;;;21.34;69.34;99634.97;10200595;28;96552;-86
2023/10/14 10:28:32;;;;;;;16.42;7.90;;;22.80;95.90;;;21.49;68.66;99623.53;10210072;28;97172;-85
2023/10/14 10:33:55;;;;;;;10.63;6.75;;;23.00;95.40;;;21.73;67.62;99605.13;10172706;28;96447;-85
2023/10/14 10:39:06;;;;;;;12.88;7.22;;;23.30;95.10;;;22.04;67.82;99611.63;10202682;28;98042;-85
2023/10/14 10:44:12;;;;;;;13.73;7.00;;;23.60;94.70;;;22.39;65.49;99608.44;10224298;28;96596;-85
2023/10/14 10:49:37;;;;;;;9.55;5.43;;;24.00;93.90;;;22.74;64.02;99604.34;10224901;28;96511;-84
2023/10/14 10:54:44;;;;;;;14.60;7.13;;;24.30;93.20;;;22.96;62.78;99590.66;10207819;28;96736;-84
2023/10/14 10:59:48;;;;;;;13.02;7.13;;;24.50;92.20;;;23.19;62.77;99584.78;10197987;28;96535;-84
2023/10/14 11:04:51;;;;;;;13.27;6.78;;;24.70;92.20;;;23.37;61.00;99585.38;10200651;28;98918;-84
2023/10/14 11:09:55;;;;;;;11.80;6.90;;;25.10;91.80;;;23.48;59.03;99581.63;10187187;28;97318;-85
2023/10/14 11:14:59;;;;;;;11.18;6.18;;;25.50;91.10;;;23.79;59.31;99587.13;10207881;28;96640;-84
2023/10/14 11:20:05;;;;;;;12.13;5.47;;;26.00;90.70;;;24.33;57.11;99583.88;10201600;28;96820;-84
2023/10/14 11:25:13;;;;;;;9.32;5.78;;;26.70;89.40;;;24.87;54.51;99589.50;10155172;28;97735;-84
2023/10/14 11:30:31;;;;;;;9.73;5.13;;;27.20;85.50;;;25.41;53.43;99577.06;10178701;28;96676;-84
2023/10/14 11:35:37;;;;;;;11.70;5.60;;;27.70;84.50;;;25.92;50.83;99563.97;10187401;28;98098;-84
2023/10/14 11:40:45;;;;;;;9.43;5.82;;;28.10;80.50;;;26.26;49.30;99547.59;10210993;28;96511;-84
2023/10/14 11:45:52;;;;;;;8.65;5.20;;;28.50;79.10;;;26.63;49.04;99557.06;10216011;28;97482;-84
2023/10/14 11:51:09;;;;;;;10.52;4.80;;;28.80;79.20;;;27.00;47.84;99545.47;10215842;28;96530;-85
2023/10/14 11:56:13;;;;;;;10.30;5.40;;;29.00;77.70;;;26.81;45.19;99529.06;10215635;28;96660;-83
2023/10/14 12:01:23;;;;;;;8.07;5.57;;;28.70;76.00;;;26.26;46.63;99530.44;10194103;28;96956;-83
2023/10/14 12:06:30;;;;;;;10.10;4.40;;;27.80;74.30;;;25.67;47.51;99520.56;10174175;28;96555;-82
2023/10/14 12:11:42;;;;;;;9.23;5.28;;;27.10;74.50;;;24.99;49.02;99529.41;10190751;28;96573;-82
2023/10/14 12:16:46;;;;;;;8.65;5.50;;;26.40;75.50;;;24.47;51.24;99520.63;10190669;28;98330;-82
2023/10/14 12:21:54;;;;;;;11.63;6.07;;;25.90;76.70;;;23.92;52.87;99522.28;10213287;28;96572;-82
2023/10/14 12:26:58;;;;;;;9.85;5.20;;;25.40;77.70;;;23.66;53.95;99526.91;10175146;28;96423;-82
2023/10/14 12:32:03;;;;;;;10.57;6.22;;;25.00;78.90;;;23.51;54.84;99521.44;10217111;28;97151;-82
2023/10/14 12:37:24;;;;;;;9.97;5.53;;;24.80;79.70;;;23.32;55.34;99507.56;10226673;28;97916;-82
2023/10/14 12:42:47;;;;;;;9.48;5.40;;;24.60;80.20;;;23.23;55.14;99514.63;10241217;28;97674;-82
2023/10/14 12:48:09;;;;;;;10.88;5.78;;;24.50;80.60;;;23.18;55.62;99512.69;10236728;28;96933;-82
2023/10/14 12:53:13;;;;;;;11.95;5.90;;;24.40;80.80;;;23.03;55.01;99520.81;10217600;28;97989;-83
2023/10/14 12:58:17;;;;;;;6.80;4.63;;;24.30;80.80;;;22.90;56.37;99508.53;10201078;28;96762;-83
2023/10/14 13:03:23;;;;;;;9.77;4.90;;;24.20;81.20;;;22.92;56.48;99513.72;10218679;28;96625;-83
2023/10/14 13:08:27;;;;;;;8.60;4.78;;;24.20;81.60;;;22.95;55.95;99513.16;10194004;28;97438;-83
2023/10/14 13:13:31;;;;;;;7.70;4.88;;;24.20;81.40;;;23.01;56.81;99503.97;10194017;28;96739;-83
2023/10/14 13:18:35;;;;;;;7.63;4.85;;;24.20;81.70;;;23.07;56.26;99499.38;10219156;28;97583;-83
2023/10/14 13:23:39;;;;;;;9.68;5.25;;;24.30;81.70;;;23.04;56.59;99487.19;10197047;28;96915;-84
2023/10/14 13:28:45;;;;;;;8.88;4.70;;;24.30;81.80;;;23.07;56.85;99483.94;10209229;28;96852;-83
2023/10/14 13:33:49;;;;;;;8.63;4.75;;;24.30;82.10;;;23.13;57.03;99493.72;10216772;28;96639;-83
2023/10/14 13:38:53;;;;;;;7.07;4.22;;;24.30;82.30;;;23.15;56.60;99486.16;10219962;28;96876;-83
2023/10/14 13:43:57;;;;;;;7.00;4.22;;;24.30;82.30;;;23.16;57.56;99484.25;10204668;28;96647;-83
2023/10/14 13:49:01;;;;;;;7.85;3.85;;;24.30;82.70;;;23.13;56.18;99482.06;10212981;28;97484;-83
2023/10/14 13:54:05;;;;;;;5.78;3.65;;;24.30;82.50;;;23.13;55.70;99487.47;10192995;28;97066;-84
2023/10/14 13:59:10;;;;;;;9.63;4.75;;;24.30;82.00;;;23.14;55.16;99484.50;10176715;28;98987;-83
2023/10/14 14:04:17;;;;;;;8.55;4.05;;;24.30;81.70;;;23.16;55.44;99482.34;10223248;28;97067;-83
2023/10/14 14:09:22;;;;;;;12.32;7.30;;;24.30;81.90;;;23.13;56.05;99482.88;10197447;28;96785;-83
2023/10/14 14:14:28;;;;;;;13.85;8.60;;;24.30;82.00;;;23.13;56.35;99469.31;10184451;28;96553;-83
2023/10/14 14:19:33;;;;;;;8.65;4.32;;;24.30;82.20;;;23.11;54.71;99474.19;10222956;28;98147;-84
2023/10/14 14:24:37;;;;;;;33.53;17.83;;;24.30;81.50;;;23.15;53.32;99475.31;10209473;28;97032;-84
2023/10/14 14:29:42;;;;;;;12.57;6.60;;;24.30;80.80;;;23.19;53.09;99470.16;10226863;28;96569;-84
2023/10/14 14:34:48;;;;;;;63.85;31.88;;;24.30;80.10;;;23.17;51.87;99461.47;10142264;28;98109;-84
2023/10/14 14:39:52;;;;;;;42.50;28.65;;;24.30;79.70;;;23.14;52.55;99449.25;10196481;28;96566;-84
2023/10/14 14:44:55;;;;;;;12.05;8.73;;;24.30;79.80;;;23.15;52.11;99458.19;10176427;28;97481;-84
2023/10/14 14:49:59;;;;;;;7.88;4.78;;;24.30;79.60;;;23.09;52.38;99443.84;10202951;28;97774;-83
2023/10/14 14:55:04;;;;;;;8.65;4.07;;;24.20;79.30;;;23.05;52.48;99441.94;10223794;28;96645;-84
2023/10/14 15:00:14;;;;;;;7.05;3.60;;;24.20;79.50;;;23.00;53.49;99437.31;10192186;28;98412;-84
2023/10/14 15:05:18;;;;;;;6.68;4.45;;;24.10;79.70;;;22.88;56.23;99444.88;10174338;28;96717;-83
2023/10/14 15:10:23;;;;;;;9.63;4.57;;;24.00;80.70;;;22.64;57.86;99448.03;10192009;28;98080;-83
2023/10/14 15:15:27;;;;;;;7.72;3.95;;;23.70;81.80;;;22.37;59.34;99453.59;10200556;28;96549;-84
2023/10/14 15:20:34;;;;;;;8.13;3.90;;;23.50;83.10;;;22.09;59.53;99456.66;10198758;28;96690;-83
2023/10/14 15:25:38;;;;;;;9.82;4.03;;;23.20;83.60;;;21.86;60.58;99465.97;10171775;28;98185;-83
2023/10/14 15:30:42;;;;;;;7.50;4.50;;;23.00;84.30;;;21.60;61.93;99468.47;10206091;28;98675;-83
2023/10/14 15:35:46;;;;;;;6.78;3.83;;;22.70;85.00;;;21.32;62.27;99463.34;10186941;28;96674;-82
2023/10/14 15:40:51;;;;;;;7.00;3.63;;;22.50;85.50;;;21.09;62.48;99470.66;10173141;28;96691;-83
2023/10/14 15:46:02;;;;;;;8.35;3.75;;;22.30;85.70;;;20.88;62.57;99471.53;10173053;28;97004;-83
2023/10/14 15:51:19;;;;;;;7.13;3.77;;;22.20;85.90;;;20.67;63.06;99466.94;10196497;28;97989;-84
2023/10/14 15:56:23;;;;;;;7.88;3.83;;;22.00;86.20;;;20.48;63.83;99467.25;10168937;28;98176;-84
2023/10/14 16:01:32;;;;;;;9.50;4.05;;;21.70;86.60;;;20.23;64.63;99472.28;10206887;28;98891;-83
2023/10/14 16:06:37;;;;;;;;;;;21.50;87.10;;;20.02;66.05;99469.28;10189660;28;96590;-84
2023/10/14 16:11:41;;;;;;;8.63;4.68;;;21.30;88.40;;;19.82;66.85;99465.47;10144326;28;96734;-83
2023/10/14 16:16:45;;;;;;;9.02;4.05;;;21.10;88.30;;;19.63;67.71;99462.22;10142115;28;98265;-83
2023/10/14 16:21:48;;;;;;;8.98;5.60;;;20.80;88.90;;;19.42;68.46;99455.63;10143256;28;96522;-83
2023/10/14 16:26:53;;;;;;;11.45;5.57;;;20.60;89.40;;;19.28;69.54;99465.06;10117665;28;96744;-83
2023/10/14 16:31:59;;;;;;;8.35;4.05;;;20.40;90.10;;;19.09;69.82;99467.97;10189986;28;96568;-83
2023/10/14 16:37:03;;;;;;;10.32;5.05;;;20.30;90.30;;;18.92;70.56;99470.63;10159303;28;96554;-83
2023/10/14 16:42:07;;;;;;;17.00;9.90;;;20.10;90.40;;;18.78;71.29;99469.28;10159255;28;96517;-83
2023/10/14 16:47:11;;;;;;;15.75;10.15;;;20.00;90.60;;;18.64;71.53;99476.75;10174119;28;96887;-83
2023/10/14 16:52:15;;;;;;;14.43;8.70;;;19.90;90.80;;;18.52;72.39;99480.53;10190301;28;97621;-83
2023/10/14 16:57:20;;;;;;;11.05;5.97;;;19.80;91.00;;;18.32;73.37;99478.22;10139245;28;96659;-83
2023/10/14 17:02:26;;;;;;;10.95;5.60;;;19.60;91.20;;;18.12;73.50;99484.78;10165533;28;96599;-83
2023/10/14 17:07:30;;;;;;;10.68;5.97;;;19.40;91.40;;;17.95;75.33;99481.16;10189581;28;96606;-83
2023/10/14 17:12:35;;;;;;;11.27;5.15;;;19.20;92.00;;;17.87;77.21;99481.50;10157419;28;96642;-82
2023/10/14 17:17:38;;;;;;;8.13;4.68;;;19.10;92.70;;;17.91;78.33;99488.88;10184324;28;96540;-82
2023/10/14 17:22:43;;;;;;;7.57;4.70;;;19.10;93.10;;;17.95;77.88;99477.66;10186853;28;98825;-82
2023/10/14 17:27:47;;;;;;;10.07;3.92;;;19.10;92.90;;;17.92;77.63;99479.75;10172018;28;96557;-83
2023/10/14 17:32:51;;;;;;;8.70;5.03;;;19.10;92.90;;;17.77;77.98;99478.59;10172756;28;96579;-82
2023/10/14 17:37:57;;;;;;;9.25;5.25;;;19.10;93.00;;;17.63;78.63;99486.84;10186596;28;96530;-82
2023/10/14 17:43:06;;;;;;;10.57;4.55;;;18.90;93.20;;;17.54;79.31;99482.03;10185673;28;98624;-82
2023/10/14 17:48:13;;;;;;;8.60;4.60;;;18.80;93.40;;;17.48;80.20;99485.63;10204147;28;96556;-82
2023/10/14 17:53:18;;;;;;;11.40;4.35;;;18.70;93.90;;;17.50;80.13;99499.63;10204310;28;96614;-82
2023/10/14 17:58:22;;;;;;;11.57;4.43;;;18.70;94.00;;;17.50;79.92;99495.06;10199621;28;96652;-82
2023/10/14 18:03:26;;;;;;;9.23;4.20;;;18.70;94.10;;;17.51;79.69;99499.44;10203531;28;96612;-82
2023/10/14 18:08:30;;;;;;;8.93;4.18;;;18.70;94.30;;;17.51;79.78;99503.94;10171530;28;97934;-82
2023/10/14 18:13:35;;;;;;;8.27;4.70;;;18.70;94.20;;;17.43;79.97;99506.97;10212260;28;96634;-82
2023/10/14 18:18:44;;;;;;;8.43;4.97;;;18.70;94.20;;;17.33;79.63;99505.69;10226105;28;96429;-82
2023/10/14 18:23:49;;;;;;;7.47;4.40;;;18.50;94.20;;;17.20;79.59;99505.84;10226180;28;99137;-82
2023/10/14 18:28:57;;;;;;;12.45;6.22;;;18.50;94.30;;;17.00;80.93;99508.00;10225639;28;97840;-82
2023/10/14 18:34:02;;;;;;;17.35;9.38;;;18.30;94.60;;;16.83;82.23;99510.47;10227185;28;96489;-82
2023/10/14 18:39:06;;;;;;;18.02;10.10;;;18.20;94.80;;;16.69;82.72;99509.78;10212896;28;96985;-82
2023/10/14 18:44:10;;;;;;;16.77;9.15;;;18.00;95.00;;;16.55;83.16;99519.00;10186395;28;97734;-82
2023/10/14 18:49:13;;;;;;;14.77;8.18;;;17.90;95.10;;;16.42;84.09;99521.84;10186206;28;96574;-82
2023/10/14 18:54:17;;;;;;;15.52;8.48;;;17.70;95.40;;;16.23;85.52;99521.81;10168990;28;96424;-82
2023/10/14 18:59:24;;;;;;;12.00;6.97;;;17.50;95.70;;;16.13;86.05;99526.84;10185843;28;96575;-82
2023/10/14 19:04:30;;;;;;;14.07;7.50;;;17.40;96.00;;;16.09;86.76;99511.44;10211487;28;98151;-82
2023/10/14 19:09:35;;;;;;;13.88;7.20;;;17.30;96.20;;;16.05;86.46;99511.88;10196871;28;97022;-82
2023/10/14 19:14:38;;;;;;;12.15;6.38;;;17.30;96.40;;;16.00;86.73;99519.75;10182032;28;97623;-82
2023/10/14 19:19:51;;;;;;;14.20;7.20;;;17.30;96.70;;;15.97;87.50;99530.09;10198674;28;96636;-82
2023/10/14 19:24:55;;;;;;;13.40;7.63;;;17.30;97.00;;;15.96;88.11;99531.16;10209638;28;97761;-82
2023/10/14 19:29:59;;;;;;;34.92;17.75;;;17.30;97.10;;;15.93;88.91;99531.56;10198993;28;96540;-82
2023/10/14 19:35:08;;;;;;;18.60;10.55;;;17.20;97.20;;;15.88;89.23;99534.91;10179780;28;98421;-82
2023/10/14 19:40:13;;;;;;;21.10;11.00;;;17.10;97.30;;;15.82;89.28;99532.28;10189804;28;98319;-82
2023/10/14 19:45:17;;;;;;;19.42;10.65;;;17.10;97.50;;;15.74;89.88;99534.19;10219962;28;98226;-82
2023/10/14 19:50:21;;;;;;;19.40;10.65;;;17.00;97.90;;;15.71;89.81;99517.72;10211128;28;98544;-82
2023/10/14 19:55:28;;;;;;;10.30;6.05;;;17.00;97.90;;;15.67;91.14;99525.38;10198954;28;98617;-82
2023/10/14 20:00:35;;;;;;;14.27;6.75;;;17.00;98.20;;;15.63;91.27;99531.38;10185934;28;96667;-82
2023/10/14 20:05:41;;;;;;;15.18;7.60;;;16.90;98.30;;;15.59;91.36;99536.31;10217758;28;96670;-83
2023/10/14 20:10:45;;;;;;;14.32;6.90;;;16.90;98.40;;;15.57;92.40;99533.03;10203840;28;96694;-82
2023/10/14 20:15:49;;;;;;;13.48;7.07;;;16.80;98.70;;;15.50;93.02;99525.06;10192989;28;96775;-82
2023/10/14 20:20:53;;;;;;;11.98;6.30;;;16.80;98.90;;;15.45;93.73;99537.44;10205494;28;96646;-82
2023/10/14 20:25:57;;;;;;;11.95;5.85;;;16.80;99.30;;;15.40;94.61;99539.94;10167522;28;96925;-82
2023/10/14 20:31:02;;;;;;;11.45;5.35;;;16.70;99.50;;;15.35;95.18;99529.88;10205986;28;97276;-82
2023/10/14 20:36:07;;;;;;;10.15;5.55;;;16.60;99.70;;;15.31;94.74;99533.22;10213304;28;96933;-82
2023/10/14 20:41:11;;;;;;;9.73;5.25;;;16.60;99.80;;;15.27;95.50;99541.66;10204013;28;97472;-82
2023/10/14 20:46:17;;;;;;;12.02;5.13;;;16.50;99.90;;;15.18;95.96;99534.94;10210333;28;98827;-82
2023/10/14 20:51:21;;;;;;;8.52;4.95;;;16.40;99.90;;;15.10;96.17;99534.34;10210406;28;96734;-81
2023/10/14 20:56:25;;;;;;;9.30;4.60;;;16.40;99.90;;;15.03;96.09;99528.19;10230822;28;98309;-81
2023/10/14 21:01:29;;;;;;;8.90;4.30;;;16.30;99.90;;;14.95;96.45;99532.75;10220983;28;96776;-81
2023/10/14 21:06:36;;;;;;;8.60;4.82;;;16.20;99.90;;;14.88;96.75;99531.97;10171767;28;97931;-82
2023/10/14 21:11:41;;;;;;;8.82;4.75;;;16.10;99.90;;;14.82;97.70;99537.34;10211175;28;97430;-83